Time;durP1;ratioP1;P1;durP2;ratioP2;P2;SDS_P1;SDS_P2;PMS_P1;PMS_P2;Temp;Humidity;BMP_temperature;BMP_pressure;BME280_temperature;BME280_humidity;BME280_pressure;Samples;Min_cycle;Max_cycle;Signal;HPM_P1;HPM_P2
2023/05/02 00:00:36;;;;;;;0.10;0.10;;;;;;;;;;5095189;28;20391;-75
2023/05/02 00:03:03;;;;;;;0.15;0.15;;;;;;;;;;5095266;28;20051;-75
2023/05/02 00:05:28;;;;;;;0.20;0.20;;;;;;;;;;5076978;28;20070;-75
2023/05/02 00:07:54;;;;;;;0.10;0.10;;;;;;;;;;5094016;28;20028;-75
2023/05/02 00:10:19;;;;;;;0.10;0.10;;;;;;;;;;5095057;28;20076;-75
2023/05/02 00:12:45;;;;;;;0.77;0.77;;;;;;;;;;5095149;28;20099;-74
2023/05/02 00:15:10;;;;;;;0.20;0.20;;;;;;;;;;5094770;28;20039;-74
2023/05/02 00:17:36;;;;;;;0.17;0.17;;;;;;;;;;5094836;28;20034;-73
2023/05/02 00:20:03;;;;;;;0.15;0.15;;;;;;;;;;5094843;28;20028;-74
2023/05/02 00:22:28;;;;;;;0.10;0.10;;;;;;;;;;5076779;28;20028;-73
2023/05/02 00:24:57;;;;;;;0.30;0.30;;;;;;;;;;5092720;28;20100;-73
2023/05/02 00:27:23;;;;;;;0.10;0.10;;;;;;;;;;5094814;28;20074;-73
2023/05/02 00:29:48;;;;;;;0.30;0.30;;;;;;;;;;5094902;28;20012;-74
2023/05/02 00:32:13;;;;;;;0.10;0.10;;;;;;;;;;5094582;28;20031;-76
2023/05/02 00:34:39;;;;;;;0.20;0.20;;;;;;;;;;5094744;28;20020;-76
2023/05/02 00:37:05;;;;;;;0.20;0.20;;;;;;;;;;5094848;28;20028;-76
2023/05/02 00:39:31;;;;;;;0.10;0.10;;;;;;;;;;5075988;28;20039;-76
2023/05/02 00:41:57;;;;;;;0.10;0.10;;;;;;;;;;5094773;28;20468;-75
2023/05/02 00:44:22;;;;;;;0.10;0.10;;;;;;;;;;5076380;28;20093;-76
2023/05/02 00:46:48;;;;;;;0.60;0.60;;;;;;;;;;5094460;28;20119;-76
2023/05/02 00:49:13;;;;;;;0.20;0.20;;;;;;;;;;5078639;28;20024;-74
2023/05/02 00:51:39;;;;;;;0.55;0.40;;;;;;;;;;5080028;28;20418;-75
2023/05/02 00:54:04;;;;;;;0.28;0.28;;;;;;;;;;5079822;28;20418;-76
2023/05/02 00:56:30;;;;;;;0.20;0.20;;;;;;;;;;5076104;28;20121;-76
2023/05/02 00:58:56;;;;;;;1.05;0.77;;;;;;;;;;5076730;28;20032;-74
2023/05/02 01:01:22;;;;;;;1.13;0.70;;;;;;;;;;5094474;28;20437;-74
2023/05/02 01:04:00;;;;;;;0.38;0.38;;;;;;;;;;5094209;28;20020;-74
2023/05/02 01:06:32;;;;;;;0.30;0.30;;;;;;;;;;5076403;28;20032;-74
2023/05/02 01:09:07;;;;;;;0.10;0.10;;;;;;;;;;5094278;28;20164;-74
2023/05/02 01:11:35;;;;;;;0.15;0.15;;;;;;;;;;5094467;28;20036;-73
2023/05/02 01:14:04;;;;;;;0.85;0.65;;;;;;;;;;5076178;28;20043;-74
2023/05/02 01:16:30;;;;;;;0.68;0.68;;;;;;;;;;5094138;28;20030;-74
2023/05/02 01:18:56;;;;;;;1.38;0.80;;;;;;;;;;5076072;28;20471;-74
2023/05/02 01:21:22;;;;;;;0.98;0.60;;;;;;;;;;5094091;28;20542;-74
2023/05/02 01:23:56;;;;;;;1.20;0.90;;;;;;;;;;5093916;28;20119;-75
2023/05/02 01:26:33;;;;;;;1.02;0.82;;;;;;;;;;5075786;28;20035;-74
2023/05/02 01:28:59;;;;;;;0.65;0.40;;;;;;;;;;5075914;28;20054;-74
2023/05/02 01:31:26;;;;;;;0.60;0.60;;;;;;;;;;5075883;28;20475;-74
2023/05/02 01:33:53;;;;;;;1.08;0.63;;;;;;;;;;5075688;28;20043;-75
2023/05/02 01:36:19;;;;;;;0.10;0.10;;;;;;;;;;5093165;28;20032;-75
2023/05/02 01:38:45;;;;;;;0.10;0.10;;;;;;;;;;5092158;28;20079;-76
2023/05/02 01:41:11;;;;;;;0.10;0.10;;;;;;;;;;5093772;28;20043;-76
2023/05/02 01:43:37;;;;;;;0.20;0.20;;;;;;;;;;5075758;28;20032;-76
2023/05/02 01:46:03;;;;;;;0.10;0.10;;;;;;;;;;5093614;28;20118;-76
2023/05/02 01:48:29;;;;;;;1.55;1.45;;;;;;;;;;5093810;28;20089;-76
2023/05/02 01:50:56;;;;;;;0.52;0.52;;;;;;;;;;5075418;28;20073;-75
2023/05/02 01:53:24;;;;;;;0.32;0.32;;;;;;;;;;5092442;28;20040;-73
2023/05/02 01:55:49;;;;;;;0.10;0.10;;;;;;;;;;5093333;28;20040;-73
2023/05/02 01:58:15;;;;;;;0.15;0.13;;;;;;;;;;5075439;28;20024;-73
2023/05/02 02:00:44;;;;;;;0.32;0.30;;;;;;;;;;5093567;28;20067;-73
2023/05/02 02:03:10;;;;;;;0.10;0.10;;;;;;;;;;5093664;28;20028;-73
2023/05/02 02:05:36;;;;;;;0.10;0.10;;;;;;;;;;5093302;28;20036;-75
2023/05/02 02:08:02;;;;;;;0.10;0.10;;;;;;;;;;5074390;28;20032;-76
2023/05/02 02:10:29;;;;;;;0.20;0.20;;;;;;;;;;5075174;28;20036;-75
2023/05/02 02:12:59;;;;;;;0.13;0.13;;;;;;;;;;5093295;28;20151;-76
2023/05/02 02:15:26;;;;;;;0.10;0.10;;;;;;;;;;5093318;28;20047;-76
2023/05/02 02:18:00;;;;;;;0.10;0.10;;;;;;;;;;5091774;28;20043;-76
2023/05/02 02:20:27;;;;;;;0.10;0.10;;;;;;;;;;5075133;28;20388;-76
2023/05/02 02:22:53;;;;;;;0.17;0.17;;;;;;;;;;5092995;28;20034;-76
2023/05/02 02:25:18;;;;;;;0.20;0.20;;;;;;;;;;5074648;28;20044;-76
2023/05/02 02:27:49;;;;;;;0.10;0.10;;;;;;;;;;5090591;28;20102;-73
2023/05/02 02:30:17;;;;;;;0.10;0.10;;;;;;;;;;5093126;28;20398;-74
2023/05/02 02:32:45;;;;;;;0.20;0.20;;;;;;;;;;5092996;28;20032;-73
2023/05/02 02:35:11;;;;;;;0.20;0.20;;;;;;;;;;5092796;28;20148;-75
2023/05/02 02:37:39;;;;;;;0.10;0.10;;;;;;;;;;5074727;28;20028;-76
2023/05/02 02:40:06;;;;;;;0.85;0.85;;;;;;;;;;5058440;28;20085;-75
2023/05/02 02:42:44;;;;;;;0.10;0.10;;;;;;;;;;5074717;28;20418;-76
2023/05/02 02:45:28;;;;;;;0.10;0.10;;;;;;;;;;5091320;28;20546;-76
2023/05/02 02:48:12;;;;;;;0.10;0.10;;;;;;;;;;5055613;28;20042;-74
2023/05/02 02:50:37;;;;;;;0.15;0.15;;;;;;;;;;5079354;28;20043;-76
2023/05/02 02:53:15;;;;;;;0.20;0.20;;;;;;;;;;5079283;28;20040;-76
2023/05/02 02:55:41;;;;;;;0.10;0.10;;;;;;;;;;5078768;28;20040;-76
2023/05/02 02:58:26;;;;;;;0.20;0.20;;;;;;;;;;5099361;28;20059;-76
2023/05/02 03:00:52;;;;;;;0.10;0.10;;;;;;;;;;5067212;28;20454;-76
2023/05/02 03:03:19;;;;;;;0.20;0.20;;;;;;;;;;5079955;28;20028;-76
2023/05/02 03:05:45;;;;;;;0.10;0.10;;;;;;;;;;5097701;28;20060;-76
2023/05/02 03:08:11;;;;;;;0.20;0.20;;;;;;;;;;5096575;28;20475;-75
2023/05/02 03:10:37;;;;;;;0.10;0.10;;;;;;;;;;5077384;28;20055;-76
2023/05/02 03:13:03;;;;;;;0.20;0.20;;;;;;;;;;5077203;28;20059;-76
2023/05/02 03:15:31;;;;;;;0.10;0.10;;;;;;;;;;5077105;28;20035;-76
2023/05/02 03:17:58;;;;;;;;;;;;;;;;;;5075972;28;20033;-74
2023/05/02 03:20:23;;;;;;;0.20;0.20;;;;;;;;;;5095236;28;19912;-75
2023/05/02 03:22:48;;;;;;;0.20;0.20;;;;;;;;;;5076451;28;20123;-75
2023/05/02 03:25:14;;;;;;;0.20;0.20;;;;;;;;;;5095129;28;20036;-75
2023/05/02 03:27:44;;;;;;;0.10;0.10;;;;;;;;;;5076900;28;20035;-75
2023/05/02 03:30:10;;;;;;;0.20;0.20;;;;;;;;;;5077082;28;20028;-75
2023/05/02 03:32:36;;;;;;;0.15;0.15;;;;;;;;;;5095349;28;20039;-76
2023/05/02 03:35:01;;;;;;;0.10;0.10;;;;;;;;;;5095170;28;20028;-75
2023/05/02 03:37:33;;;;;;;0.20;0.20;;;;;;;;;;5061161;28;20024;-76
2023/05/02 03:39:58;;;;;;;0.10;0.10;;;;;;;;;;5076574;28;20554;-75
2023/05/02 03:42:24;;;;;;;0.15;0.15;;;;;;;;;;5094898;28;20114;-75
2023/05/02 03:44:52;;;;;;;0.15;0.15;;;;;;;;;;5076726;28;20085;-75
2023/05/02 03:47:19;;;;;;;0.20;0.20;;;;;;;;;;5076316;28;20032;-76
2023/05/02 03:49:45;;;;;;;0.20;0.20;;;;;;;;;;5076549;28;20089;-75
2023/05/02 03:52:11;;;;;;;0.17;0.17;;;;;;;;;;5076355;28;20093;-77
2023/05/02 03:54:37;;;;;;;0.10;0.10;;;;;;;;;;5093263;28;20024;-76
2023/05/02 03:57:03;;;;;;;0.20;0.20;;;;;;;;;;5076359;28;20495;-75
2023/05/02 03:59:33;;;;;;;0.22;0.22;;;;;;;;;;5078784;28;20039;-76
2023/05/02 04:02:02;;;;;;;0.20;0.20;;;;;;;;;;5073273;28;20036;-75
2023/05/02 04:04:37;;;;;;;0.47;0.47;;;;;;;;;;5052883;28;20052;-75
2023/05/02 04:07:03;;;;;;;0.20;0.20;;;;;;;;;;5053094;28;20032;-75
2023/05/02 04:09:29;;;;;;;0.93;0.90;;;;;;;;;;5068927;28;20082;-74
2023/05/02 04:12:00;;;;;;;0.20;0.20;;;;;;;;;;5072864;28;20036;-75
2023/05/02 04:14:26;;;;;;;0.10;0.10;;;;;;;;;;5072929;28;20085;-76
2023/05/02 04:16:53;;;;;;;0.20;0.20;;;;;;;;;;5072827;28;20024;-76
2023/05/02 04:19:32;;;;;;;0.35;0.35;;;;;;;;;;5072721;28;20040;-76
2023/05/02 04:21:58;;;;;;;0.20;0.20;;;;;;;;;;5090497;28;20032;-75
2023/05/02 04:24:23;;;;;;;0.10;0.10;;;;;;;;;;5089401;28;20085;-76
2023/05/02 04:26:49;;;;;;;0.20;0.20;;;;;;;;;;5072821;28;20379;-75
2023/05/02 04:29:14;;;;;;;0.20;0.20;;;;;;;;;;5090796;28;20507;-75
2023/05/02 04:31:41;;;;;;;0.10;0.10;;;;;;;;;;5072541;28;20024;-75
2023/05/02 04:34:07;;;;;;;0.20;0.20;;;;;;;;;;5071963;28;20040;-77
2023/05/02 04:36:39;;;;;;;0.10;0.10;;;;;;;;;;5054929;28;20056;-76
2023/05/02 04:39:06;;;;;;;0.20;0.20;;;;;;;;;;5071877;28;20100;-76
2023/05/02 04:41:34;;;;;;;0.15;0.15;;;;;;;;;;5072575;28;20028;-74
2023/05/02 04:44:04;;;;;;;0.10;0.10;;;;;;;;;;5072247;28;20055;-74
2023/05/02 04:46:30;;;;;;;0.20;0.20;;;;;;;;;;5054848;28;20071;-74
2023/05/02 04:48:55;;;;;;;0.10;0.10;;;;;;;;;;5072136;28;20073;-74
2023/05/02 04:51:21;;;;;;;0.20;0.20;;;;;;;;;;5090512;28;20121;-73
2023/05/02 04:53:48;;;;;;;0.15;0.15;;;;;;;;;;5071854;28;20173;-74
2023/05/02 04:56:13;;;;;;;0.20;0.20;;;;;;;;;;5070202;28;20122;-75
2023/05/02 04:58:39;;;;;;;0.60;0.60;;;;;;;;;;5090510;28;20452;-74
2023/05/02 05:01:07;;;;;;;0.20;0.20;;;;;;;;;;5087701;28;20035;-75
2023/05/02 05:03:33;;;;;;;0.15;0.15;;;;;;;;;;5072266;28;20032;-74
2023/05/02 05:05:59;;;;;;;0.10;0.10;;;;;;;;;;5070713;28;20177;-74
2023/05/02 05:08:26;;;;;;;0.20;0.20;;;;;;;;;;5066194;28;20028;-74
2023/05/02 05:10:51;;;;;;;0.22;0.22;;;;;;;;;;5070374;28;20028;-74
2023/05/02 05:13:18;;;;;;;2.40;0.85;;;;;;;;;;5070229;28;20032;-74
2023/05/02 05:15:46;;;;;;;0.50;0.50;;;;;;;;;;5072148;28;20065;-74
2023/05/02 05:18:14;;;;;;;1.70;1.42;;;;;;;;;;5071599;28;20036;-75
2023/05/02 05:20:39;;;;;;;0.47;0.47;;;;;;;;;;5071202;28;20368;-75
2023/05/02 05:23:05;;;;;;;2.90;1.55;;;;;;;;;;5067444;28;20023;-78
2023/05/02 05:25:32;;;;;;;1.95;1.73;;;;;;;;;;5070874;28;20401;-76
2023/05/02 05:27:58;;;;;;;0.52;0.20;;;;;;;;;;5071777;28;20077;-75
2023/05/02 05:30:25;;;;;;;1.63;1.42;;;;;;;;;;5072729;28;20089;-75
2023/05/02 05:32:51;;;;;;;0.10;0.10;;;;;;;;;;5070005;28;20036;-76
2023/05/02 05:35:17;;;;;;;0.20;0.20;;;;;;;;;;5070082;28;20035;-76
2023/05/02 05:37:43;;;;;;;0.30;0.30;;;;;;;;;;5071632;28;20085;-76
2023/05/02 05:40:11;;;;;;;0.10;0.10;;;;;;;;;;5071465;28;20039;-75
2023/05/02 05:42:38;;;;;;;0.10;0.10;;;;;;;;;;5071634;28;20028;-75
2023/05/02 05:45:09;;;;;;;0.20;0.20;;;;;;;;;;5069579;28;20545;-75
2023/05/02 05:47:35;;;;;;;0.20;0.20;;;;;;;;;;5060442;28;20132;-77
2023/05/02 05:50:00;;;;;;;0.20;0.20;;;;;;;;;;5050715;28;20028;-74
2023/05/02 05:52:28;;;;;;;0.20;0.20;;;;;;;;;;5054002;28;20028;-76
2023/05/02 05:54:55;;;;;;;0.10;0.10;;;;;;;;;;5082005;28;20360;-75
2023/05/02 05:57:22;;;;;;;0.20;0.20;;;;;;;;;;5064291;28;20032;-75
2023/05/02 05:59:49;;;;;;;0.20;0.20;;;;;;;;;;5078652;28;20048;-75
2023/05/02 06:02:15;;;;;;;7.88;1.63;;;;;;;;;;5063872;28;20036;-75
2023/05/02 06:04:41;;;;;;;2.05;1.95;;;;;;;;;;5070986;28;20228;-75
2023/05/02 06:07:07;;;;;;;0.20;0.20;;;;;;;;;;5070378;28;20123;-75
2023/05/02 06:09:32;;;;;;;0.20;0.20;;;;;;;;;;5065437;28;20166;-76
2023/05/02 06:12:00;;;;;;;0.30;0.30;;;;;;;;;;5069640;28;20032;-76
2023/05/02 06:14:26;;;;;;;0.20;0.20;;;;;;;;;;5070027;28;20036;-75
2023/05/02 06:16:52;;;;;;;0.50;0.50;;;;;;;;;;5070987;28;20127;-76
2023/05/02 06:19:17;;;;;;;0.10;0.10;;;;;;;;;;5088985;28;20460;-75
2023/05/02 06:21:43;;;;;;;0.20;0.20;;;;;;;;;;5089153;28;20043;-76
2023/05/02 06:24:08;;;;;;;0.20;0.20;;;;;;;;;;5085450;28;20050;-76
2023/05/02 06:26:34;;;;;;;0.20;0.20;;;;;;;;;;5071277;28;20913;-76
2023/05/02 06:29:00;;;;;;;0.30;0.30;;;;;;;;;;5087653;28;20425;-75
2023/05/02 06:31:25;;;;;;;0.20;0.20;;;;;;;;;;5086548;28;20035;-75
2023/05/02 06:33:51;;;;;;;0.20;0.20;;;;;;;;;;5087510;28;20047;-76
2023/05/02 06:36:16;;;;;;;0.20;0.20;;;;;;;;;;5088926;28;20028;-76
2023/05/02 06:38:42;;;;;;;0.20;0.20;;;;;;;;;;5087263;28;20472;-75
2023/05/02 06:41:11;;;;;;;0.40;0.40;;;;;;;;;;5088844;28;20032;-75
2023/05/02 06:43:37;;;;;;;0.20;0.20;;;;;;;;;;5087707;28;20479;-76
2023/05/02 06:46:02;;;;;;;0.20;0.20;;;;;;;;;;5087379;28;20036;-77
2023/05/02 06:48:28;;;;;;;0.20;0.20;;;;;;;;;;5087458;28;20036;-77
2023/05/02 06:50:53;;;;;;;0.20;0.20;;;;;;;;;;5086949;28;20020;-77
2023/05/02 06:53:19;;;;;;;0.22;0.22;;;;;;;;;;5087342;28;20031;-76
2023/05/02 06:55:45;;;;;;;0.20;0.20;;;;;;;;;;5087372;28;20055;-76
2023/05/02 06:58:10;;;;;;;0.20;0.20;;;;;;;;;;5088501;28;20044;-74
2023/05/02 07:00:36;;;;;;;0.47;0.47;;;;;;;;;;5087429;28;20066;-76
2023/05/02 07:03:01;;;;;;;0.20;0.20;;;;;;;;;;5086681;28;20035;-76
2023/05/02 07:05:28;;;;;;;0.20;0.20;;;;;;;;;;5085163;28;20472;-76
2023/05/02 07:07:53;;;;;;;0.22;0.22;;;;;;;;;;5087513;28;20073;-76
2023/05/02 07:10:18;;;;;;;0.20;0.20;;;;;;;;;;5087254;28;20462;-78
2023/05/02 07:12:44;;;;;;;0.20;0.20;;;;;;;;;;5085175;28;20028;-79
2023/05/02 07:15:09;;;;;;;0.20;0.20;;;;;;;;;;5086381;28;20056;-79
2023/05/02 07:17:35;;;;;;;0.52;0.52;;;;;;;;;;5088218;28;20032;-78
2023/05/02 07:20:00;;;;;;;0.20;0.20;;;;;;;;;;5087705;28;20031;-78
2023/05/02 07:22:26;;;;;;;0.20;0.20;;;;;;;;;;5088178;28;20035;-79
2023/05/02 07:24:58;;;;;;;0.20;0.20;;;;;;;;;;5088694;28;20027;-78
2023/05/02 07:27:23;;;;;;;0.20;0.20;;;;;;;;;;5088358;28;20032;-77
2023/05/02 07:29:50;;;;;;;0.20;0.20;;;;;;;;;;5086676;28;20518;-78
2023/05/02 07:32:15;;;;;;;0.20;0.20;;;;;;;;;;5087107;28;20032;-78
2023/05/02 07:34:41;;;;;;;0.20;0.20;;;;;;;;;;5086738;28;20093;-78
2023/05/02 07:37:06;;;;;;;0.20;0.20;;;;;;;;;;5090200;28;20055;-77
2023/05/02 07:39:32;;;;;;;0.20;0.20;;;;;;;;;;5090515;28;20028;-78
2023/05/02 07:41:57;;;;;;;0.20;0.20;;;;;;;;;;5091704;28;20036;-77
2023/05/02 07:44:23;;;;;;;0.20;0.20;;;;;;;;;;5091452;28;20039;-77
2023/05/02 07:46:48;;;;;;;0.30;0.30;;;;;;;;;;5091765;28;20032;-78
2023/05/02 07:49:14;;;;;;;0.20;0.20;;;;;;;;;;5091643;28;20383;-78
2023/05/02 07:51:39;;;;;;;0.20;0.20;;;;;;;;;;5073745;28;20016;-75
2023/05/02 07:54:17;;;;;;;0.20;0.20;;;;;;;;;;5091932;28;20107;-75
2023/05/02 07:56:43;;;;;;;0.20;0.20;;;;;;;;;;5091400;28;20476;-75
2023/05/02 07:59:08;;;;;;;0.20;0.20;;;;;;;;;;5091694;28;20035;-75
2023/05/02 08:01:34;;;;;;;0.20;0.20;;;;;;;;;;5091265;28;20524;-75
2023/05/02 08:04:00;;;;;;;0.20;0.20;;;;;;;;;;5091104;28;20055;-75
2023/05/02 08:06:25;;;;;;;0.20;0.20;;;;;;;;;;5082292;28;20031;-76
2023/05/02 08:08:51;;;;;;;0.20;0.20;;;;;;;;;;5089561;28;20467;-75
2023/05/02 08:11:16;;;;;;;0.28;0.28;;;;;;;;;;5091292;28;20035;-75
2023/05/02 08:13:42;;;;;;;0.30;0.30;;;;;;;;;;5091101;28;20064;-75
2023/05/02 08:16:07;;;;;;;0.20;0.20;;;;;;;;;;5088937;28;20541;-76
2023/05/02 08:18:33;;;;;;;0.15;0.15;;;;;;;;;;5068770;28;20028;-76
2023/05/02 08:20:58;;;;;;;0.20;0.20;;;;;;;;;;5062006;28;20505;-76
2023/05/02 08:23:23;;;;;;;0.20;0.20;;;;;;;;;;5086206;28;20123;-76
2023/05/02 08:25:49;;;;;;;0.20;0.20;;;;;;;;;;5090801;28;20055;-76
2023/05/02 08:28:14;;;;;;;0.20;0.20;;;;;;;;;;5091109;28;20067;-76
2023/05/02 08:30:40;;;;;;;0.20;0.20;;;;;;;;;;5072633;28;20525;-77
2023/05/02 08:33:06;;;;;;;0.20;0.20;;;;;;;;;;5082950;28;20032;-76
2023/05/02 08:35:31;;;;;;;0.65;0.65;;;;;;;;;;5078023;28;20032;-76
2023/05/02 08:37:57;;;;;;;0.30;0.30;;;;;;;;;;5052375;28;20085;-75
2023/05/02 08:40:22;;;;;;;0.20;0.20;;;;;;;;;;5072467;28;20493;-76
2023/05/02 08:42:48;;;;;;;0.30;0.30;;;;;;;;;;5085230;28;20077;-75
2023/05/02 08:45:17;;;;;;;0.20;0.20;;;;;;;;;;5084896;28;20078;-76
2023/05/02 08:47:43;;;;;;;0.30;0.30;;;;;;;;;;5084459;28;20099;-76
2023/05/02 08:50:10;;;;;;;0.30;0.30;;;;;;;;;;5087028;28;20032;-77
2023/05/02 08:52:36;;;;;;;0.47;0.40;;;;;;;;;;5085997;28;20529;-77
2023/05/02 08:55:02;;;;;;;0.20;0.20;;;;;;;;;;5060980;28;20048;-76
2023/05/02 08:57:29;;;;;;;0.20;0.20;;;;;;;;;;5081035;28;20039;-76
2023/05/02 08:59:54;;;;;;;0.20;0.20;;;;;;;;;;5061660;28;20132;-79
2023/05/02 09:02:26;;;;;;;0.20;0.20;;;;;;;;;;5078788;28;20495;-79
2023/05/02 09:04:53;;;;;;;0.32;0.32;;;;;;;;;;5079363;28;20123;-77
2023/05/02 09:07:19;;;;;;;0.30;0.30;;;;;;;;;;5079019;28;20028;-76
2023/05/02 09:09:44;;;;;;;0.43;0.43;;;;;;;;;;5080607;28;20371;-79
2023/05/02 09:12:10;;;;;;;0.30;0.30;;;;;;;;;;5078760;28;20476;-78
2023/05/02 09:14:35;;;;;;;0.20;0.20;;;;;;;;;;5079464;28;20052;-77
2023/05/02 09:17:01;;;;;;;0.32;0.32;;;;;;;;;;5080369;28;20091;-77
2023/05/02 09:19:26;;;;;;;0.20;0.20;;;;;;;;;;5078167;28;20040;-78
2023/05/02 09:21:58;;;;;;;0.25;0.25;;;;;;;;;;5084224;28;20047;-79
2023/05/02 09:24:23;;;;;;;0.30;0.30;;;;;;;;;;5079433;28;20498;-79
2023/05/02 09:26:56;;;;;;;0.20;0.20;;;;;;;;;;5080373;28;20025;-78
2023/05/02 09:29:22;;;;;;;0.20;0.20;;;;;;;;;;5080347;28;20056;-79
2023/05/02 09:31:47;;;;;;;0.20;0.20;;;;;;;;;;5079659;28;20066;-77
2023/05/02 09:34:16;;;;;;;0.25;0.25;;;;;;;;;;5081079;28;20032;-78
2023/05/02 09:36:43;;;;;;;0.30;0.30;;;;;;;;;;5061116;28;20434;-76
2023/05/02 09:39:10;;;;;;;0.20;0.20;;;;;;;;;;5080548;28;20037;-77
2023/05/02 09:41:40;;;;;;;0.45;0.45;;;;;;;;;;5086804;28;20107;-77
2023/05/02 09:44:08;;;;;;;0.20;0.20;;;;;;;;;;5071258;28;20518;-77
2023/05/02 09:46:38;;;;;;;0.20;0.20;;;;;;;;;;5085266;28;20024;-76
2023/05/02 09:49:03;;;;;;;0.20;0.20;;;;;;;;;;5085505;28;20069;-75
2023/05/02 09:51:30;;;;;;;0.32;0.30;;;;;;;;;;5063172;28;20458;-75
2023/05/02 09:53:55;;;;;;;0.40;0.40;;;;;;;;;;5078906;28;20050;-76
2023/05/02 09:56:20;;;;;;;0.20;0.20;;;;;;;;;;5079665;28;20470;-75
2023/05/02 09:58:46;;;;;;;0.30;0.30;;;;;;;;;;5059781;28;20134;-77
2023/05/02 10:01:15;;;;;;;0.20;0.20;;;;;;;;;;5083188;28;20024;-77
2023/05/02 10:03:44;;;;;;;0.52;0.47;;;;;;;;;;5083376;28;20028;-78
2023/05/02 10:06:10;;;;;;;0.52;0.52;;;;;;;;;;5084511;28;20071;-78
2023/05/02 10:08:36;;;;;;;0.30;0.30;;;;;;;;;;5078206;28;20060;-76
2023/05/02 10:11:04;;;;;;;0.20;0.20;;;;;;;;;;5065775;28;20024;-77
2023/05/02 10:13:31;;;;;;;0.30;0.30;;;;;;;;;;5079427;28;20050;-78
2023/05/02 10:16:00;;;;;;;0.20;0.20;;;;;;;;;;5078160;28;20027;-79
2023/05/02 10:18:26;;;;;;;;;;;;;;;;;;5078466;28;20369;-77
2023/05/02 10:20:56;;;;;;;0.98;0.50;;;;;;;;;;5079796;28;19919;-79
2023/05/02 10:23:24;;;;;;;17.15;1.83;;;;;;;;;;5060995;28;20115;-81
2023/05/02 10:25:49;;;;;;;0.20;0.20;;;;;;;;;;5077125;28;20067;-78
2023/05/02 10:28:15;;;;;;;3.20;1.00;;;;;;;;;;5079257;28;20526;-78
2023/05/02 10:30:40;;;;;;;0.35;0.35;;;;;;;;;;5078233;28;20036;-83
2023/05/02 10:33:06;;;;;;;1.05;0.85;;;;;;;;;;5078051;28;20051;-79
2023/05/02 10:35:31;;;;;;;1.08;0.93;;;;;;;;;;5079440;28;20160;-79
2023/05/02 10:37:59;;;;;;;2.28;1.90;;;;;;;;;;5077288;28;20514;-76
2023/05/02 10:40:25;;;;;;;2.00;1.40;;;;;;;;;;5077664;28;20105;-76
2023/05/02 10:42:51;;;;;;;0.20;0.20;;;;;;;;;;5060903;28;20557;-76
2023/05/02 10:45:33;;;;;;;0.30;0.30;;;;;;;;;;5077699;28;20040;-76
2023/05/02 10:48:17;;;;;;;0.93;0.73;;;;;;;;;;5061419;28;20047;-75
2023/05/02 10:50:46;;;;;;;1.10;0.85;;;;;;;;;;5077960;28;20071;-74
2023/05/02 10:53:25;;;;;;;2.08;1.52;;;;;;;;;;5076583;28;20060;-76
2023/05/02 10:56:09;;;;;;;2.65;2.08;;;;;;;;;;5076461;28;20066;-78
2023/05/02 10:58:35;;;;;;;0.77;0.65;;;;;;;;;;5077018;28;20089;-75
2023/05/02 11:01:19;;;;;;;2.28;1.42;;;;;;;;;;5078424;28;20028;-77
2023/05/02 11:03:58;;;;;;;1.20;0.38;;;;;;;;;;5078275;28;20041;-76
2023/05/02 11:06:25;;;;;;;1.08;0.82;;;;;;;;;;5060076;28;20398;-77
2023/05/02 11:08:50;;;;;;;1.63;1.30;;;;;;;;;;5058857;28;20078;-77
2023/05/02 11:11:35;;;;;;;0.10;0.10;;;;;;;;;;5082440;28;20438;-76
2023/05/02 11:14:00;;;;;;;1.58;1.17;;;;;;;;;;5079896;28;20048;-76
2023/05/02 11:16:26;;;;;;;0.20;0.20;;;;;;;;;;5083297;28;20456;-75
2023/05/02 11:18:59;;;;;;;0.55;0.52;;;;;;;;;;5080160;28;20098;-76
2023/05/02 11:21:28;;;;;;;0.20;0.20;;;;;;;;;;5087965;28;20849;-76
2023/05/02 11:24:13;;;;;;;0.40;0.40;;;;;;;;;;5079961;28;20383;-76
2023/05/02 11:26:38;;;;;;;1.08;0.80;;;;;;;;;;5080640;28;20119;-75
2023/05/02 11:29:04;;;;;;;0.88;0.68;;;;;;;;;;5080875;28;20435;-75
2023/05/02 11:31:29;;;;;;;0.93;0.80;;;;;;;;;;5082591;28;20571;-76
2023/05/02 11:33:55;;;;;;;1.17;0.75;;;;;;;;;;5079783;28;20035;-76
2023/05/02 11:36:28;;;;;;;0.20;0.20;;;;;;;;;;5080973;28;20425;-75
2023/05/02 11:38:54;;;;;;;0.40;0.40;;;;;;;;;;5084882;28;20038;-76
2023/05/02 11:41:19;;;;;;;0.20;0.20;;;;;;;;;;5083029;28;20036;-76
2023/05/02 11:43:45;;;;;;;0.85;0.60;;;;;;;;;;5081839;28;20035;-76
2023/05/02 11:46:11;;;;;;;1.65;1.30;;;;;;;;;;5083144;28;20028;-75
2023/05/02 11:48:36;;;;;;;1.52;0.95;;;;;;;;;;5065937;28;20502;-75
2023/05/02 11:51:03;;;;;;;0.55;0.40;;;;;;;;;;5081153;28;20052;-76
2023/05/02 11:53:30;;;;;;;0.47;0.47;;;;;;;;;;5081868;28;20032;-77
2023/05/02 11:55:56;;;;;;;0.95;0.95;;;;;;;;;;5082436;28;20039;-77
2023/05/02 11:58:23;;;;;;;0.20;0.20;;;;;;;;;;5080896;28;20024;-80
2023/05/02 12:00:49;;;;;;;0.30;0.30;;;;;;;;;;5082128;28;20024;-76
2023/05/02 12:03:18;;;;;;;1.90;0.30;;;;;;;;;;5080361;28;20021;-76
2023/05/02 12:05:44;;;;;;;0.20;0.20;;;;;;;;;;5080303;28;20059;-76
2023/05/02 12:08:17;;;;;;;0.80;0.80;;;;;;;;;;5082256;28;20056;-76
2023/05/02 12:10:42;;;;;;;0.60;0.38;;;;;;;;;;5081831;28;20114;-76
2023/05/02 12:13:08;;;;;;;0.52;0.52;;;;;;;;;;5081823;28;20108;-75
2023/05/02 12:15:35;;;;;;;1.67;0.98;;;;;;;;;;5079433;28;20035;-76
2023/05/02 12:18:00;;;;;;;0.20;0.20;;;;;;;;;;5082101;28;20077;-75
2023/05/02 12:20:26;;;;;;;0.15;0.15;;;;;;;;;;5079152;28;20091;-78
2023/05/02 12:22:51;;;;;;;0.38;0.38;;;;;;;;;;5081627;28;20028;-89
2023/05/02 12:25:17;;;;;;;0.20;0.20;;;;;;;;;;5079400;28;20047;-78
2023/05/02 12:27:57;;;;;;;0.25;0.25;;;;;;;;;;5085949;28;20043;-78
2023/05/02 12:30:26;;;;;;;0.30;0.30;;;;;;;;;;5091080;28;20116;-78
2023/05/02 12:32:55;;;;;;;0.30;0.30;;;;;;;;;;5090710;28;20057;-76
2023/05/02 12:35:21;;;;;;;0.13;0.13;;;;;;;;;;5090913;28;20036;-77
2023/05/02 12:37:47;;;;;;;0.20;0.20;;;;;;;;;;5090513;28;20479;-76
2023/05/02 12:40:16;;;;;;;0.20;0.20;;;;;;;;;;5090924;28;20028;-76
2023/05/02 12:42:41;;;;;;;0.20;0.20;;;;;;;;;;5091114;28;20063;-76
2023/05/02 12:45:16;;;;;;;1.27;0.30;;;;;;;;;;5091006;28;20105;-76
2023/05/02 12:47:47;;;;;;;0.20;0.20;;;;;;;;;;5090881;28;20380;-75
2023/05/02 12:50:13;;;;;;;0.20;0.20;;;;;;;;;;5090316;28;20554;-76
2023/05/02 12:52:49;;;;;;;0.20;0.20;;;;;;;;;;5090626;28;20026;-75
2023/05/02 12:55:15;;;;;;;0.20;0.20;;;;;;;;;;5090493;28;20039;-75
2023/05/02 12:57:40;;;;;;;0.20;0.20;;;;;;;;;;5091204;28;20027;-75
2023/05/02 13:00:07;;;;;;;0.20;0.20;;;;;;;;;;5090897;28;20036;-74
2023/05/02 13:02:32;;;;;;;0.25;0.25;;;;;;;;;;5090478;28;20536;-77
2023/05/02 13:04:57;;;;;;;0.20;0.20;;;;;;;;;;5090393;28;20020;-76
2023/05/02 13:07:23;;;;;;;0.20;0.20;;;;;;;;;;5090472;28;20038;-76
2023/05/02 13:09:48;;;;;;;0.17;0.17;;;;;;;;;;5090017;28;20028;-76
2023/05/02 13:12:13;;;;;;;0.20;0.20;;;;;;;;;;5090207;28;20032;-76
2023/05/02 13:14:39;;;;;;;0.20;0.20;;;;;;;;;;5090556;28;20028;-77
2023/05/02 13:17:04;;;;;;;0.20;0.20;;;;;;;;;;5090237;28;20032;-76
2023/05/02 13:19:30;;;;;;;0.20;0.20;;;;;;;;;;5090415;28;20043;-75
2023/05/02 13:21:55;;;;;;;0.20;0.20;;;;;;;;;;5089730;28;20161;-76
2023/05/02 13:24:21;;;;;;;0.20;0.20;;;;;;;;;;5089969;28;20028;-75
2023/05/02 13:26:46;;;;;;;1.23;0.70;;;;;;;;;;5090841;28;20516;-75
2023/05/02 13:29:12;;;;;;;0.15;0.15;;;;;;;;;;5089941;28;20028;-75
2023/05/02 13:31:37;;;;;;;0.20;0.20;;;;;;;;;;5090054;28;20245;-76
2023/05/02 13:34:03;;;;;;;0.30;0.30;;;;;;;;;;5089510;28;20047;-75
2023/05/02 13:36:28;;;;;;;0.65;0.52;;;;;;;;;;5089971;28;20431;-75
2023/05/02 13:38:54;;;;;;;0.20;0.20;;;;;;;;;;5090042;28;20027;-76
2023/05/02 13:41:20;;;;;;;0.20;0.20;;;;;;;;;;5089920;28;20034;-76
2023/05/02 13:43:45;;;;;;;0.30;0.30;;;;;;;;;;5089866;28;20403;-76
2023/05/02 13:46:11;;;;;;;0.10;0.10;;;;;;;;;;5091180;28;20055;-75
2023/05/02 13:48:36;;;;;;;1.17;0.50;;;;;;;;;;5090440;28;20024;-75
2023/05/02 13:51:02;;;;;;;0.10;0.10;;;;;;;;;;5090041;28;20047;-75
2023/05/02 13:53:27;;;;;;;0.30;0.30;;;;;;;;;;5089852;28;20103;-75
2023/05/02 13:55:53;;;;;;;0.20;0.20;;;;;;;;;;5089517;28;20024;-75
2023/05/02 13:58:18;;;;;;;0.22;0.22;;;;;;;;;;5071538;28;20425;-75
2023/05/02 14:00:43;;;;;;;0.22;0.22;;;;;;;;;;5089602;28;20137;-75
2023/05/02 14:03:09;;;;;;;0.40;0.40;;;;;;;;;;5089648;28;20364;-76
2023/05/02 14:05:35;;;;;;;2.30;1.33;;;;;;;;;;5089200;28;20028;-76
2023/05/02 14:08:00;;;;;;;1.00;0.60;;;;;;;;;;5088591;28;20391;-75
2023/05/02 14:10:26;;;;;;;0.20;0.20;;;;;;;;;;5089614;28;20071;-74
2023/05/02 14:12:51;;;;;;;0.20;0.20;;;;;;;;;;5088822;28;20514;-76
2023/05/02 14:15:17;;;;;;;0.13;0.13;;;;;;;;;;5089446;28;20035;-76
2023/05/02 14:17:42;;;;;;;0.20;0.20;;;;;;;;;;5089222;28;20032;-77
2023/05/02 14:20:09;;;;;;;0.20;0.20;;;;;;;;;;5088890;28;20040;-76
2023/05/02 14:22:34;;;;;;;0.20;0.20;;;;;;;;;;5071615;28;20024;-76
2023/05/02 14:25:00;;;;;;;0.20;0.20;;;;;;;;;;5089325;28;20437;-76
2023/05/02 14:27:25;;;;;;;0.40;0.40;;;;;;;;;;5089148;28;20052;-76
2023/05/02 14:29:51;;;;;;;0.20;0.20;;;;;;;;;;5089123;28;20031;-76
2023/05/02 14:32:16;;;;;;;0.20;0.20;;;;;;;;;;5071232;28;20165;-77
2023/05/02 14:34:42;;;;;;;0.35;0.35;;;;;;;;;;5088438;28;20058;-77
2023/05/02 14:37:10;;;;;;;0.30;0.30;;;;;;;;;;5088365;28;20103;-77
2023/05/02 14:39:35;;;;;;;0.22;0.22;;;;;;;;;;5088364;28;20036;-78
2023/05/02 14:42:03;;;;;;;0.20;0.20;;;;;;;;;;5088500;28;20161;-80